createdAt,value
2023-05-05T00:03:37.732Z,99101.66
2023-05-05T00:08:42.985Z,99098.59
2023-05-05T00:13:51.000Z,99108.88
2023-05-05T00:18:56.075Z,99098.38
2023-05-05T00:24:01.342Z,99099.66
2023-05-05T00:29:11.600Z,99089.19
2023-05-05T00:34:16.782Z,99079.50
2023-05-05T00:39:21.848Z,99074.78
2023-05-05T00:44:41.199Z,99063.84
2023-05-05T00:49:46.826Z,99059.16
2023-05-05T00:54:52.121Z,99062.59
2023-05-05T01:00:02.916Z,99040.91
2023-05-05T01:05:09.731Z,99052.53
2023-05-05T01:10:25.102Z,99048.16
2023-05-05T01:15:37.124Z,99055.53
2023-05-05T01:20:49.415Z,99052.47
2023-05-05T01:26:24.577Z,99060.63
2023-05-05T01:31:52.101Z,99060.25
2023-05-05T01:37:06.532Z,99061.53
2023-05-05T01:42:15.279Z,99055.13
2023-05-05T01:47:25.356Z,99063.44
2023-05-05T01:52:32.874Z,99058.63
2023-05-05T01:57:40.370Z,99061.41
2023-05-05T02:02:49.868Z,99056.84
2023-05-05T02:08:00.257Z,99051.44
2023-05-05T02:13:08.040Z,99049.53
2023-05-05T02:18:17.580Z,99043.16
2023-05-05T02:23:22.982Z,99035.31
2023-05-05T02:28:36.397Z,99026.28
2023-05-05T02:33:46.193Z,99034.97
2023-05-05T02:38:57.868Z,99029.56
2023-05-05T02:44:08.225Z,99027.19
2023-05-05T02:49:18.599Z,99024.94
2023-05-05T02:54:24.606Z,99023.88
2023-05-05T02:59:39.376Z,99029.16
2023-05-05T03:04:56.894Z,99029.59
2023-05-05T03:10:09.851Z,99035.19
2023-05-05T03:15:21.378Z,99035.56
2023-05-05T03:20:29.798Z,99034.25
2023-05-05T03:25:57.949Z,99017.00
2023-05-05T03:31:11.361Z,99029.34
2023-05-05T03:36:22.497Z,99032.25
2023-05-05T03:41:28.797Z,99034.97
2023-05-05T03:46:37.380Z,99031.09
2023-05-05T03:51:47.919Z,99034.84
2023-05-05T03:56:54.989Z,99029.66
2023-05-05T04:02:00.478Z,99035.47
2023-05-05T04:07:10.298Z,99038.56
2023-05-05T04:12:17.741Z,99030.47
2023-05-05T04:17:23.875Z,99034.50
2023-05-05T04:22:33.797Z,99045.13
2023-05-05T04:27:40.247Z,99044.75
2023-05-05T04:32:46.119Z,99041.97
2023-05-05T04:37:55.034Z,99042.06
2023-05-05T04:43:04.083Z,99044.34
2023-05-05T04:48:10.591Z,99039.88
2023-05-05T04:53:23.262Z,99040.09
2023-05-05T04:58:29.925Z,99053.13
2023-05-05T05:03:35.523Z,99047.13
2023-05-05T05:08:45.995Z,99052.41
2023-05-05T05:13:53.239Z,99048.00
2023-05-05T05:18:59.612Z,99052.38
2023-05-05T05:24:16.670Z,99047.03
2023-05-05T05:29:23.504Z,99054.63
2023-05-05T05:34:30.051Z,99049.41
2023-05-05T05:39:42.724Z,99051.72
2023-05-05T05:44:50.372Z,99057.09
2023-05-05T05:49:55.836Z,99049.81
2023-05-05T05:55:08.204Z,99066.88
2023-05-05T06:00:21.635Z,99050.38
2023-05-05T06:05:34.758Z,99047.78
2023-05-05T06:10:46.361Z,99045.13
2023-05-05T06:15:55.091Z,99044.06
2023-05-05T06:21:03.585Z,99041.94
2023-05-05T06:26:14.727Z,99041.84
2023-05-05T06:31:22.282Z,99046.66
2023-05-05T06:36:28.303Z,99045.69
2023-05-05T06:41:36.425Z,99054.50
2023-05-05T06:46:45.003Z,99044.69
2023-05-05T06:51:50.012Z,99037.56
2023-05-05T06:57:00.820Z,99025.63
2023-05-05T07:02:06.817Z,99028.78
2023-05-05T07:07:12.142Z,99035.44
2023-05-05T07:12:22.709Z,99038.63
2023-05-05T07:17:27.979Z,99029.09
2023-05-05T07:22:34.999Z,99030.19
2023-05-05T07:27:45.201Z,99026.22
2023-05-05T07:32:50.782Z,99032.94
2023-05-05T07:37:56.590Z,99027.19
2023-05-05T07:43:05.488Z,99038.13
2023-05-05T07:48:11.684Z,99034.28
2023-05-05T07:53:20.793Z,99028.34
2023-05-05T07:58:28.879Z,99034.00
2023-05-05T08:03:34.412Z,99034.84
2023-05-05T08:08:42.337Z,99033.00
2023-05-05T08:13:51.114Z,99042.75
2023-05-05T08:18:56.409Z,99036.09
2023-05-05T08:24:03.868Z,99030.03
2023-05-05T08:29:11.773Z,99021.66
2023-05-05T08:34:17.461Z,99027.69
2023-05-05T08:39:23.162Z,99029.69
2023-05-05T08:44:31.575Z,99022.31
2023-05-05T08:49:47.762Z,99029.19
2023-05-05T08:55:00.614Z,99018.34
2023-05-05T09:00:12.516Z,99014.09
2023-05-05T09:05:19.541Z,99010.31
2023-05-05T09:10:24.913Z,99008.25
2023-05-05T09:15:33.660Z,99004.53
2023-05-05T09:20:43.083Z,98998.50
2023-05-05T09:25:51.942Z,99005.03
2023-05-05T09:31:01.364Z,99010.81
2023-05-05T09:36:09.089Z,99001.34
2023-05-05T09:41:15.630Z,99013.19
2023-05-05T09:46:23.620Z,99006.59
2023-05-05T09:51:34.871Z,99015.34
2023-05-05T09:56:44.422Z,99010.00
2023-05-05T10:01:54.822Z,99010.59
2023-05-05T10:07:02.161Z,99005.28
2023-05-05T10:12:11.286Z,99001.50
2023-05-05T10:17:23.860Z,98987.66
2023-05-05T10:22:31.797Z,98975.63
2023-05-05T10:27:46.356Z,98970.44
2023-05-05T10:33:08.293Z,98973.38
2023-05-05T10:38:26.933Z,98975.50
2023-05-05T10:43:33.715Z,98971.88
2023-05-05T10:48:58.053Z,98966.31
2023-05-05T10:54:11.208Z,98969.25
2023-05-05T10:59:46.330Z,98953.69
2023-05-05T11:05:18.244Z,98953.59
2023-05-05T11:10:25.952Z,98947.78
2023-05-05T11:15:40.767Z,98933.06
2023-05-05T11:21:16.085Z,98944.63
2023-05-05T11:26:42.542Z,98934.63
2023-05-05T11:32:05.767Z,98931.19
2023-05-05T11:37:15.362Z,98915.84
2023-05-05T11:42:30.413Z,98917.09
2023-05-05T11:47:36.627Z,98908.97
2023-05-05T11:52:48.809Z,98907.94
2023-05-05T11:57:55.625Z,98920.19
2023-05-05T12:03:07.682Z,98914.78
2023-05-05T12:08:17.204Z,98909.22
2023-05-05T12:13:26.080Z,98903.56
2023-05-05T12:18:39.141Z,98899.41
2023-05-05T12:23:48.754Z,98882.19
2023-05-05T12:28:53.889Z,98883.28
2023-05-05T12:33:59.564Z,98888.34
2023-05-05T12:39:08.420Z,98894.25
2023-05-05T12:44:19.625Z,98887.50
2023-05-05T12:49:32.420Z,98880.09
2023-05-05T12:54:57.166Z,98887.94
2023-05-05T13:00:07.820Z,98870.47
2023-05-05T13:05:13.274Z,98873.69
2023-05-05T13:10:21.134Z,98867.50
2023-05-05T13:15:28.383Z,98853.22
2023-05-05T13:20:33.665Z,98864.81
2023-05-05T13:25:44.579Z,98857.13
2023-05-05T13:30:49.642Z,98842.81
2023-05-05T13:35:55.098Z,98837.78
2023-05-05T13:41:04.252Z,98822.00
2023-05-05T13:46:20.088Z,98826.69
2023-05-05T13:51:26.073Z,98821.63
2023-05-05T13:56:36.304Z,98814.97
2023-05-05T14:01:44.082Z,98812.78
2023-05-05T14:06:58.871Z,98798.97
2023-05-05T14:12:06.899Z,98804.91
2023-05-05T14:17:12.015Z,98805.28
2023-05-05T14:22:17.149Z,98794.28
2023-05-05T14:27:25.075Z,98799.66
2023-05-05T14:32:30.277Z,98791.81
2023-05-05T14:37:37.954Z,98792.34
2023-05-05T14:42:46.718Z,98789.63
2023-05-05T14:47:52.061Z,98787.78
2023-05-05T14:52:57.331Z,98785.25
2023-05-05T14:58:07.232Z,98768.03
2023-05-05T15:03:12.532Z,98769.63
2023-05-05T15:08:19.492Z,98760.75
2023-05-05T15:13:27.305Z,98761.09
2023-05-05T15:18:32.390Z,98754.44
2023-05-05T15:23:37.753Z,98757.66
2023-05-05T15:28:46.544Z,98754.66
2023-05-05T15:33:52.521Z,98747.03
2023-05-05T15:38:57.587Z,98750.34
2023-05-05T15:44:08.737Z,98743.41
2023-05-05T15:49:13.856Z,98749.06
2023-05-05T15:54:19.063Z,98731.84
2023-05-05T15:59:29.038Z,98742.81
2023-05-05T16:04:34.322Z,98732.56
2023-05-05T16:09:41.941Z,98729.50
2023-05-05T16:14:49.710Z,98737.34
2023-05-05T16:19:54.885Z,98732.19
2023-05-05T16:25:00.148Z,98726.53
2023-05-05T16:30:09.288Z,98723.41
2023-05-05T16:35:14.762Z,98727.34
2023-05-05T16:40:19.835Z,98735.44
2023-05-05T16:45:27.673Z,98725.16
2023-05-05T16:50:32.677Z,98724.44
2023-05-05T16:55:37.911Z,98721.78
2023-05-05T17:00:47.094Z,98728.41
2023-05-05T17:05:53.025Z,98727.28
2023-05-05T17:10:58.194Z,98721.94
2023-05-05T17:16:06.179Z,98723.59
2023-05-05T17:21:14.101Z,98733.63
2023-05-05T17:26:19.535Z,98741.56
2023-05-05T17:31:27.515Z,98741.78
2023-05-05T17:36:33.892Z,98735.19
2023-05-05T17:41:39.023Z,98731.25
2023-05-05T17:46:46.870Z,98720.53
2023-05-05T17:51:52.003Z,98726.47
2023-05-05T17:56:57.640Z,98728.06
2023-05-05T18:02:07.590Z,98724.22
2023-05-05T18:07:14.850Z,98723.50
2023-05-05T18:12:19.912Z,98729.56
2023-05-05T18:17:29.459Z,98731.69
2023-05-05T18:22:34.555Z,98736.88
2023-05-05T18:27:44.108Z,98731.22
2023-05-05T18:32:55.868Z,98740.56
2023-05-05T18:38:01.265Z,98728.81
2023-05-05T18:43:06.945Z,98740.19
2023-05-05T18:48:14.830Z,98742.28
2023-05-05T18:53:22.799Z,98751.06
2023-05-05T18:58:30.737Z,98737.44
2023-05-05T19:03:38.819Z,98743.00
2023-05-05T19:08:47.292Z,98751.75
2023-05-05T19:13:55.999Z,98747.88
2023-05-05T19:19:03.691Z,98744.72
2023-05-05T19:24:15.085Z,98746.28
2023-05-05T19:29:21.938Z,98737.59
2023-05-05T19:34:30.475Z,98741.41
2023-05-05T19:39:36.209Z,98745.91
2023-05-05T19:44:41.480Z,98747.88
2023-05-05T19:49:49.216Z,98739.13
2023-05-05T19:54:55.027Z,98743.81
2023-05-05T20:00:02.269Z,98745.47
2023-05-05T20:05:14.174Z,98741.13
2023-05-05T20:10:19.608Z,98736.38
2023-05-05T20:15:31.295Z,98735.63
2023-05-05T20:20:39.827Z,98740.09
2023-05-05T20:25:45.082Z,98728.91
2023-05-05T20:30:50.412Z,98738.41
2023-05-05T20:35:59.765Z,98726.63
2023-05-05T20:41:04.899Z,98724.53
2023-05-05T20:46:13.425Z,98719.38
2023-05-05T20:51:22.388Z,98726.53
2023-05-05T20:56:27.602Z,98723.84
2023-05-05T21:01:34.774Z,98727.00
2023-05-05T21:06:43.922Z,98728.81
2023-05-05T21:11:48.957Z,98730.91
2023-05-05T21:16:56.070Z,98724.75
2023-05-05T21:22:04.582Z,98719.63
2023-05-05T21:27:11.843Z,98698.81
2023-05-05T21:32:17.720Z,98702.84
2023-05-05T21:37:25.883Z,98709.09
2023-05-05T21:42:32.989Z,98710.91
2023-05-05T21:47:38.657Z,98701.50
2023-05-05T21:52:46.723Z,98695.91
2023-05-05T21:57:51.813Z,98699.47
2023-05-05T22:02:57.078Z,98680.47
2023-05-05T22:08:04.980Z,98681.44
2023-05-05T22:13:10.757Z,98672.25
2023-05-05T22:18:15.972Z,98675.13
2023-05-05T22:23:23.708Z,98677.75
2023-05-05T22:28:29.989Z,98677.97
2023-05-05T22:33:36.557Z,98684.34
2023-05-05T22:38:44.646Z,98685.88
2023-05-05T22:43:49.929Z,98689.75
2023-05-05T22:48:55.642Z,98688.97
2023-05-05T22:54:03.590Z,98698.81
2023-05-05T22:59:08.648Z,98724.00
2023-05-05T23:04:14.038Z,98719.75
2023-05-05T23:09:21.905Z,98728.97
2023-05-05T23:14:27.265Z,98729.47
2023-05-05T23:19:32.941Z,98736.69
2023-05-05T23:24:40.787Z,98751.94
2023-05-05T23:29:45.835Z,98751.84
2023-05-05T23:34:51.233Z,98747.31
2023-05-05T23:39:59.695Z,98750.06
2023-05-05T23:45:04.962Z,98743.50
2023-05-05T23:50:12.343Z,98732.84
2023-05-05T23:55:20.400Z,98730.69
